Time;durP1;ratioP1;P1;durP2;ratioP2;P2;SDS_P1;SDS_P2;PMS_P1;PMS_P2;Temp;Humidity;BMP_temperature;BMP_pressure;BME280_temperature;BME280_humidity;BME280_pressure;Samples;Min_cycle;Max_cycle;Signal;HPM_P1;HPM_P2
2023/12/31 00:01:23;;;;;;;7.38;4.90;;;9.30;99.80;;;;;;6180045;23;20241;-68
2023/12/31 00:04:09;;;;;;;10.20;6.30;;;9.40;99.80;;;;;;6181647;23;20063;-68
2023/12/31 00:06:55;;;;;;;8.27;5.57;;;9.30;99.70;;;;;;6180176;23;20021;-68
2023/12/31 00:09:41;;;;;;;7.78;5.30;;;9.30;99.80;;;;;;6159317;23;20009;-68
2023/12/31 00:12:27;;;;;;;10.45;5.47;;;9.30;99.80;;;;;;6179709;23;20025;-68
2023/12/31 00:15:14;;;;;;;8.63;5.38;;;9.30;99.90;;;;;;6180288;23;20520;-69
2023/12/31 00:18:00;;;;;;;10.27;5.93;;;9.20;99.90;;;;;;6178926;23;20009;-68
2023/12/31 00:20:46;;;;;;;10.35;5.30;;;9.30;99.90;;;;;;6181505;23;20493;-69
2023/12/31 00:23:32;;;;;;;10.15;5.47;;;9.30;99.90;;;;;;6179933;23;20005;-69
2023/12/31 00:26:18;;;;;;;7.45;4.50;;;9.30;99.90;;;;;;6156978;23;20500;-68
2023/12/31 00:29:04;;;;;;;7.28;3.88;;;9.30;99.90;;;;;;6179430;23;20155;-69
2023/12/31 00:31:49;;;;;;;7.55;4.78;;;9.30;99.90;;;;;;6181117;23;20013;-69
2023/12/31 00:34:36;;;;;;;8.80;4.60;;;9.30;99.90;;;;;;6179351;23;20009;-69
2023/12/31 00:37:22;;;;;;;8.93;4.50;;;9.30;99.90;;;;;;6179680;23;20009;-68
2023/12/31 00:40:08;;;;;;;9.55;4.40;;;9.30;99.90;;;;;;6181903;23;20017;-68
2023/12/31 00:42:54;;;;;;;7.80;4.25;;;9.30;99.90;;;;;;6182070;23;20009;-68
2023/12/31 00:45:40;;;;;;;8.15;4.50;;;9.30;99.90;;;;;;6179413;23;20075;-68
2023/12/31 00:48:26;;;;;;;7.45;3.78;;;9.30;99.90;;;;;;6180960;23;20009;-69
2023/12/31 00:51:12;;;;;;;7.60;3.25;;;9.30;99.90;;;;;;6179998;23;20342;-69
2023/12/31 00:53:58;;;;;;;6.20;3.33;;;9.30;99.90;;;;;;6180040;23;20037;-69
2023/12/31 00:56:43;;;;;;;8.75;3.22;;;9.30;99.90;;;;;;6181168;23;20081;-69
2023/12/31 00:59:29;;;;;;;6.47;4.07;;;9.30;99.90;;;;;;6180460;23;20585;-68
2023/12/31 01:02:15;;;;;;;5.55;3.10;;;9.30;99.90;;;;;;6180677;23;20507;-68
2023/12/31 01:05:01;;;;;;;13.15;5.63;;;9.30;99.90;;;;;;6179429;23;20016;-69
2023/12/31 01:07:47;;;;;;;14.88;3.70;;;9.30;99.90;;;;;;6179229;23;20021;-69
2023/12/31 01:10:33;;;;;;;7.15;3.08;;;9.30;99.90;;;;;;6181717;23;20005;-68
2023/12/31 01:13:19;;;;;;;8.48;3.40;;;9.30;99.90;;;;;;6182385;23;20024;-68
2023/12/31 01:16:05;;;;;;;7.18;3.33;;;9.30;99.90;;;;;;6181692;23;20033;-68
2023/12/31 01:18:51;;;;;;;6.28;3.38;;;9.20;99.90;;;;;;6160684;23;20092;-69
2023/12/31 01:21:37;;;;;;;9.38;3.00;;;9.20;99.90;;;;;;6183629;23;20028;-68
2023/12/31 01:24:23;;;;;;;6.63;4.03;;;9.20;99.90;;;;;;6182504;23;20378;-67
2023/12/31 01:27:09;;;;;;;9.73;3.78;;;9.10;99.90;;;;;;6179918;23;20027;-68
2023/12/31 01:29:55;;;;;;;8.68;3.90;;;9.10;99.90;;;;;;6181329;23;20016;-68
2023/12/31 01:32:41;;;;;;;6.60;3.45;;;9.00;99.90;;;;;;6183510;23;20017;-67
2023/12/31 01:35:27;;;;;;;7.82;3.88;;;8.90;99.90;;;;;;6182733;23;20038;-68
2023/12/31 01:38:13;;;;;;;6.95;4.00;;;8.90;99.90;;;;;;6181092;23;20013;-67
2023/12/31 01:40:58;;;;;;;7.60;4.10;;;8.90;99.90;;;;;;6181270;23;20489;-68
2023/12/31 01:43:44;;;;;;;9.00;3.63;;;8.80;99.90;;;;;;6181270;23;20369;-67
2023/12/31 01:46:32;;;;;;;9.63;4.13;;;8.80;99.90;;;;;;6183348;23;20024;-67
2023/12/31 01:49:18;;;;;;;10.38;3.92;;;8.70;99.90;;;;;;6182822;23;20386;-67
2023/12/31 01:52:04;;;;;;;6.88;4.13;;;8.70;99.90;;;;;;6184360;23;20009;-68
2023/12/31 01:54:52;;;;;;;8.25;3.97;;;8.60;99.90;;;;;;6183302;23;20015;-67
2023/12/31 01:57:38;;;;;;;6.05;3.58;;;8.60;99.90;;;;;;6183960;23;20017;-68
2023/12/31 02:00:24;;;;;;;6.55;3.72;;;8.60;99.90;;;;;;6182781;23;20005;-68
2023/12/31 02:03:10;;;;;;;8.52;4.00;;;8.50;99.90;;;;;;6181162;23;20009;-68
2023/12/31 02:05:56;;;;;;;6.93;4.25;;;8.40;99.90;;;;;;6183501;23;20021;-66
2023/12/31 02:08:42;;;;;;;7.55;4.00;;;8.40;99.90;;;;;;6183047;23;20375;-67
2023/12/31 02:11:28;;;;;;;8.15;3.95;;;8.40;99.90;;;;;;6180981;23;20024;-67
2023/12/31 02:14:14;;;;;;;7.88;4.25;;;8.40;99.90;;;;;;6181080;23;20442;-67
2023/12/31 02:17:00;;;;;;;9.02;4.03;;;8.30;99.90;;;;;;6183903;23;20062;-67
2023/12/31 02:19:46;;;;;;;5.88;4.32;;;8.30;99.90;;;;;;6158192;23;20096;-67
2023/12/31 02:22:32;;;;;;;9.45;4.28;;;8.30;99.90;;;;;;6181587;23;20013;-67
2023/12/31 02:25:22;;;;;;;6.88;3.13;;;8.20;99.90;;;;;;6182548;23;20020;-67
2023/12/31 02:28:08;;;;;;;8.75;3.60;;;8.20;99.90;;;;;;6182742;23;20032;-67
2023/12/31 02:30:54;;;;;;;7.57;3.92;;;8.10;99.90;;;;;;6180861;23;20466;-67
2023/12/31 02:33:40;;;;;;;8.88;3.53;;;8.20;99.90;;;;;;6181640;23;20342;-67
2023/12/31 02:36:26;;;;;;;9.57;3.65;;;8.10;99.90;;;;;;6181460;23;20342;-67
2023/12/31 02:39:12;;;;;;;7.57;4.57;;;8.10;99.90;;;;;;6182206;23;20548;-67
2023/12/31 02:41:58;;;;;;;9.60;3.55;;;8.10;99.90;;;;;;6181401;23;20458;-67
2023/12/31 02:44:44;;;;;;;6.85;3.60;;;8.10;99.90;;;;;;6182698;23;20393;-67
2023/12/31 02:47:30;;;;;;;5.90;3.60;;;8.00;99.90;;;;;;6182342;23;20393;-66
2023/12/31 02:50:16;;;;;;;7.32;3.58;;;8.00;99.90;;;;;;6183289;23;20013;-66
2023/12/31 02:53:02;;;;;;;6.88;3.55;;;8.00;99.90;;;;;;6182147;23;20047;-66
2023/12/31 02:55:48;;;;;;;10.13;5.10;;;8.00;99.90;;;;;;6182182;23;20016;-66
2023/12/31 02:58:34;;;;;;;6.75;3.75;;;7.90;99.90;;;;;;6181863;23;20009;-66
2023/12/31 03:01:20;;;;;;;5.57;3.15;;;7.90;99.90;;;;;;6181683;23;20038;-66
2023/12/31 03:04:06;;;;;;;7.43;3.05;;;7.90;99.90;;;;;;6180710;23;20098;-66
2023/12/31 03:06:52;;;;;;;6.28;3.60;;;7.90;99.90;;;;;;6181748;23;20393;-66
2023/12/31 03:09:39;;;;;;;11.85;3.58;;;7.90;99.90;;;;;;6183452;23;20013;-67
2023/12/31 03:12:25;;;;;;;7.70;3.67;;;7.80;99.90;;;;;;6181378;23;20025;-67
2023/12/31 03:15:11;;;;;;;5.25;2.80;;;7.80;99.90;;;;;;6160572;23;20010;-67
2023/12/31 03:17:57;;;;;;;10.43;3.65;;;7.80;99.90;;;;;;6179375;23;20342;-68
2023/12/31 03:20:43;;;;;;;7.47;4.00;;;7.80;99.90;;;;;;6182615;23;20009;-68
2023/12/31 03:23:29;;;;;;;6.57;3.35;;;7.80;99.90;;;;;;6180457;23;20013;-68
2023/12/31 03:26:15;;;;;;;5.80;3.15;;;7.70;99.90;;;;;;6182200;23;20092;-68
2023/12/31 03:29:02;;;;;;;6.47;3.75;;;7.70;99.90;;;;;;6180653;23;20007;-68
2023/12/31 03:31:48;;;;;;;8.68;3.00;;;7.70;99.90;;;;;;6182612;23;20013;-68
2023/12/31 03:34:34;;;;;;;8.07;4.13;;;7.70;99.90;;;;;;6180549;23;20027;-68
2023/12/31 03:37:19;;;;;;;5.13;3.25;;;7.70;99.90;;;;;;6180275;23;20512;-68
2023/12/31 03:40:06;;;;;;;7.32;3.20;;;7.60;99.90;;;;;;6180299;23;20009;-68
2023/12/31 03:42:52;;;;;;;7.55;3.67;;;7.60;99.90;;;;;;6180082;23;20177;-67
2023/12/31 03:45:38;;;;;;;8.20;3.80;;;7.60;99.90;;;;;;6181096;23;20024;-68
2023/12/31 03:48:24;;;;;;;8.95;4.50;;;7.50;99.90;;;;;;6180645;23;20101;-68
2023/12/31 03:51:10;;;;;;;7.53;4.68;;;7.50;99.90;;;;;;6181058;23;20389;-68
2023/12/31 03:53:56;;;;;;;10.82;4.03;;;7.50;99.90;;;;;;6178800;23;20013;-68
2023/12/31 03:56:42;;;;;;;6.82;4.00;;;7.40;99.90;;;;;;6179035;23;20016;-68
2023/12/31 03:59:28;;;;;;;7.88;4.38;;;7.40;99.90;;;;;;6180385;23;20017;-68
2023/12/31 04:02:16;;;;;;;8.73;4.35;;;7.30;99.90;;;;;;6180691;23;20010;-68
2023/12/31 04:05:03;;;;;;;5.95;3.92;;;7.30;99.90;;;;;;6181992;23;20023;-68
2023/12/31 04:07:49;;;;;;;5.60;3.15;;;7.30;99.90;;;;;;6180262;23;20020;-68
2023/12/31 04:10:35;;;;;;;7.53;3.58;;;7.30;99.90;;;;;;6181802;23;20028;-68
2023/12/31 04:13:21;;;;;;;5.95;3.65;;;7.30;99.90;;;;;;6180070;23;20025;-68
2023/12/31 04:16:10;;;;;;;7.97;3.67;;;7.20;99.90;;;;;;6180865;23;20085;-68
2023/12/31 04:18:56;;;;;;;5.65;3.17;;;7.20;99.90;;;;;;6179436;23;20088;-68
2023/12/31 04:21:42;;;;;;;6.50;3.72;;;7.20;99.90;;;;;;6182094;23;20005;-68
2023/12/31 04:24:28;;;;;;;6.35;3.67;;;7.20;99.90;;;;;;6179290;23;20017;-67
2023/12/31 04:27:14;;;;;;;7.30;3.92;;;7.20;99.90;;;;;;6180143;23;20354;-67
2023/12/31 04:30:00;;;;;;;9.75;3.97;;;7.10;99.90;;;;;;6181416;23;20342;-67
2023/12/31 04:32:46;;;;;;;6.63;3.45;;;7.10;99.90;;;;;;6181676;23;20009;-67
2023/12/31 04:35:32;;;;;;;7.18;3.90;;;7.10;99.90;;;;;;6179635;23;20381;-67
2023/12/31 04:38:18;;;;;;;9.90;4.65;;;7.10;99.90;;;;;;6180862;23;20164;-67
2023/12/31 04:41:05;;;;;;;6.00;3.53;;;7.10;99.90;;;;;;6179335;23;20009;-66
2023/12/31 04:43:51;;;;;;;10.38;4.40;;;7.00;99.90;;;;;;6180209;23;20016;-67
2023/12/31 04:46:37;;;;;;;6.93;4.50;;;7.00;99.90;;;;;;6180384;23;20021;-67
2023/12/31 04:49:23;;;;;;;7.38;4.35;;;7.00;99.90;;;;;;6179492;23;20009;-67
2023/12/31 04:52:09;;;;;;;6.70;4.25;;;7.00;99.90;;;;;;6181085;23;20394;-67
2023/12/31 04:54:55;;;;;;;10.70;4.03;;;7.00;99.90;;;;;;6159875;23;20088;-67
2023/12/31 04:57:41;;;;;;;10.90;4.63;;;7.00;99.90;;;;;;6179734;23;20019;-66
2023/12/31 05:00:27;;;;;;;4.68;3.70;;;7.00;99.90;;;;;;6180502;23;20005;-66
2023/12/31 05:03:12;;;;;;;6.53;3.40;;;7.00;99.90;;;;;;6180329;23;20758;-67
2023/12/31 05:05:58;;;;;;;7.20;4.57;;;7.00;99.90;;;;;;6180696;23;20125;-66
2023/12/31 05:08:45;;;;;;;6.85;3.47;;;7.00;99.90;;;;;;6180321;23;20032;-67
2023/12/31 05:11:31;;;;;;;7.88;4.55;;;7.10;99.90;;;;;;6178773;23;20457;-66
2023/12/31 05:14:17;;;;;;;13.63;3.92;;;7.00;99.90;;;;;;6181561;23;20075;-68
2023/12/31 05:17:03;;;;;;;4.50;3.13;;;7.10;99.90;;;;;;6181667;23;20457;-68
2023/12/31 05:19:49;;;;;;;7.82;3.70;;;7.10;99.90;;;;;;6180583;23;20441;-67
2023/12/31 05:22:35;;;;;;;6.97;3.13;;;7.10;99.90;;;;;;6180945;23;20453;-67
2023/12/31 05:25:21;;;;;;;7.43;3.55;;;7.10;99.90;;;;;;6181518;23;20045;-67
2023/12/31 05:28:07;;;;;;;7.10;3.95;;;7.10;99.90;;;;;;6181681;23;20017;-67
2023/12/31 05:30:53;;;;;;;6.95;3.45;;;7.10;99.90;;;;;;6180610;23;20485;-67
2023/12/31 05:33:41;;;;;;;8.15;3.78;;;7.10;99.90;;;;;;6180541;23;20060;-66
2023/12/31 05:36:26;;;;;;;8.70;3.75;;;7.10;99.90;;;;;;6181881;23;20017;-67
2023/12/31 05:39:12;;;;;;;5.38;3.15;;;7.20;99.90;;;;;;6179602;23;20009;-67
2023/12/31 05:41:58;;;;;;;4.43;3.25;;;7.20;99.90;;;;;;6180068;23;20013;-67
2023/12/31 05:44:44;;;;;;;6.78;3.63;;;7.20;99.90;;;;;;6180415;23;20390;-67
2023/12/31 05:47:30;;;;;;;8.32;3.58;;;7.20;99.90;;;;;;6178442;23;20412;-67
2023/12/31 05:50:16;;;;;;;9.18;3.00;;;7.20;99.90;;;;;;6159096;23;20342;-67
2023/12/31 05:53:02;;;;;;;6.05;3.20;;;7.20;99.90;;;;;;6181036;23;20415;-67
2023/12/31 05:55:48;;;;;;;4.85;3.38;;;7.20;99.90;;;;;;6182488;23;20350;-67
2023/12/31 05:58:34;;;;;;;7.40;3.78;;;7.20;99.90;;;;;;6180929;23;20031;-68
2023/12/31 06:01:21;;;;;;;9.40;3.42;;;7.30;99.90;;;;;;6179964;23;20400;-67
2023/12/31 06:04:07;;;;;;;5.63;2.88;;;7.30;99.90;;;;;;6160940;23;20012;-68
2023/12/31 06:06:53;;;;;;;8.35;3.78;;;7.30;99.90;;;;;;6183153;23;20533;-68
2023/12/31 06:09:39;;;;;;;6.78;3.55;;;7.30;99.90;;;;;;6183016;23;20016;-68
2023/12/31 06:12:26;;;;;;;7.65;3.70;;;7.30;99.90;;;;;;6181646;23;20052;-68
2023/12/31 06:15:12;;;;;;;5.65;3.30;;;7.30;99.90;;;;;;6181382;23;20012;-72
2023/12/31 06:17:57;;;;;;;4.65;3.00;;;7.40;99.90;;;;;;6180799;23;20063;-71
2023/12/31 06:20:43;;;;;;;7.07;3.80;;;7.40;99.90;;;;;;6182691;23;20001;-72
2023/12/31 06:23:29;;;;;;;6.20;3.45;;;7.40;99.90;;;;;;6181111;23;20036;-72
2023/12/31 06:26:15;;;;;;;7.53;2.97;;;7.40;99.90;;;;;;6181832;23;20028;-71
2023/12/31 06:29:01;;;;;;;6.75;2.97;;;7.40;99.90;;;;;;6181225;23;20016;-71
2023/12/31 06:31:47;;;;;;;9.02;3.25;;;7.40;99.90;;;;;;6181084;23;20013;-74
2023/12/31 06:34:33;;;;;;;5.70;3.10;;;7.40;99.90;;;;;;6181330;23;20415;-69
2023/12/31 06:37:20;;;;;;;5.95;2.88;;;7.50;99.90;;;;;;6181522;23;20036;-65
2023/12/31 06:40:08;;;;;;;5.25;3.25;;;7.50;99.90;;;;;;6161799;23;20013;-65
2023/12/31 06:42:53;;;;;;;12.90;4.43;;;7.50;99.90;;;;;;6183638;23;20016;-66
2023/12/31 06:45:40;;;;;;;5.95;3.63;;;7.50;99.90;;;;;;6179713;23;20096;-66
2023/12/31 06:48:26;;;;;;;6.13;3.25;;;7.50;99.90;;;;;;6181778;23;20442;-67
2023/12/31 06:51:12;;;;;;;6.05;3.75;;;7.50;99.90;;;;;;6182027;23;20005;-68
2023/12/31 06:53:58;;;;;;;5.68;3.30;;;7.60;99.90;;;;;;6178500;23;20264;-67
2023/12/31 06:56:44;;;;;;;7.00;3.30;;;7.60;99.90;;;;;;6180986;23;20038;-67
2023/12/31 06:59:30;;;;;;;5.90;3.20;;;7.60;99.90;;;;;;6182238;23;20023;-67
2023/12/31 07:02:16;;;;;;;5.97;3.05;;;7.70;99.90;;;;;;6182192;23;20091;-68
2023/12/31 07:05:02;;;;;;;6.63;3.50;;;7.60;99.90;;;;;;6178390;23;20091;-68
2023/12/31 07:07:48;;;;;;;7.50;3.55;;;7.70;99.90;;;;;;6180067;23;20025;-68
2023/12/31 07:10:34;;;;;;;4.07;2.35;;;7.70;99.90;;;;;;6182274;23;20083;-68
2023/12/31 07:13:20;;;;;;;7.57;3.47;;;7.80;99.90;;;;;;6182457;23;20036;-68
2023/12/31 07:16:06;;;;;;;7.47;3.35;;;7.80;99.90;;;;;;6181249;23;20091;-68
2023/12/31 07:18:52;;;;;;;6.32;2.85;;;7.80;99.90;;;;;;6179650;23;20009;-68
2023/12/31 07:21:38;;;;;;;4.97;2.65;;;7.80;99.90;;;;;;6160070;23;20013;-66
2023/12/31 07:24:24;;;;;;;4.30;2.67;;;7.90;99.90;;;;;;6179745;23;20017;-67
2023/12/31 07:27:10;;;;;;;5.78;2.78;;;7.90;99.90;;;;;;6182333;23;20016;-67
2023/12/31 07:29:56;;;;;;;8.73;2.83;;;7.90;99.90;;;;;;6179975;23;20129;-67
2023/12/31 07:32:42;;;;;;;6.43;3.65;;;7.90;99.90;;;;;;6180301;23;20081;-67
2023/12/31 07:35:31;;;;;;;5.38;3.00;;;7.90;99.90;;;;;;6180871;23;20031;-67
2023/12/31 07:38:17;;;;;;;4.63;2.88;;;7.90;99.90;;;;;;6180644;23;20441;-66
2023/12/31 07:41:03;;;;;;;5.93;3.58;;;8.00;99.90;;;;;;6180890;23;20009;-67
2023/12/31 07:43:49;;;;;;;4.35;2.83;;;8.00;99.90;;;;;;6180700;23;20005;-67
2023/12/31 07:46:35;;;;;;;8.13;3.53;;;8.00;99.90;;;;;;6179930;23;20021;-66
2023/12/31 07:49:21;;;;;;;5.65;3.40;;;8.00;99.90;;;;;;6182143;23;20009;-67
2023/12/31 07:52:07;;;;;;;8.65;3.80;;;8.00;99.90;;;;;;6181560;23;20096;-67
2023/12/31 07:54:53;;;;;;;4.68;2.70;;;8.00;99.90;;;;;;6180552;23;20005;-67
2023/12/31 07:57:39;;;;;;;4.72;2.90;;;8.00;99.90;;;;;;6180444;23;20013;-67
2023/12/31 08:00:25;;;;;;;6.22;2.90;;;8.00;99.90;;;;;;6181869;23;20450;-67
2023/12/31 08:03:12;;;;;;;5.88;2.92;;;8.00;99.90;;;;;;6181312;23;20504;-67
2023/12/31 08:05:57;;;;;;;7.22;3.00;;;8.00;99.90;;;;;;6180332;23;20024;-67
2023/12/31 08:08:43;;;;;;;5.90;3.15;;;8.00;99.90;;;;;;6182279;23;20016;-67
2023/12/31 08:11:29;;;;;;;5.63;2.85;;;8.00;99.90;;;;;;6179668;23;20076;-67
2023/12/31 08:14:15;;;;;;;6.93;2.70;;;8.10;99.90;;;;;;6179348;23;20079;-67
2023/12/31 08:17:02;;;;;;;5.40;2.53;;;8.10;99.90;;;;;;6181175;23;20013;-67
2023/12/31 08:19:48;;;;;;;5.47;3.40;;;8.10;99.90;;;;;;6180322;23;20020;-68
2023/12/31 08:22:34;;;;;;;5.25;2.67;;;8.20;99.90;;;;;;6179634;23;20080;-68
2023/12/31 08:25:20;;;;;;;5.82;2.97;;;8.20;99.90;;;;;;6179163;23;20013;-67
2023/12/31 08:28:07;;;;;;;6.35;2.90;;;8.20;99.90;;;;;;6179468;23;20256;-66
2023/12/31 08:30:53;;;;;;;6.35;3.35;;;8.20;99.90;;;;;;6180013;23;20009;-65
2023/12/31 08:33:39;;;;;;;4.35;2.63;;;8.30;99.90;;;;;;6181362;23;20021;-67
2023/12/31 08:36:25;;;;;;;7.07;2.55;;;8.30;99.90;;;;;;6181692;23;20064;-67
2023/12/31 08:39:11;;;;;;;3.97;2.55;;;8.30;99.90;;;;;;6179376;23;20017;-67
2023/12/31 08:41:56;;;;;;;5.18;2.70;;;8.40;99.90;;;;;;6176437;23;20088;-67
2023/12/31 08:44:43;;;;;;;4.80;2.45;;;8.40;99.90;;;;;;6158521;23;20009;-67
2023/12/31 08:47:29;;;;;;;5.32;2.88;;;8.40;99.90;;;;;;6180046;23;20155;-68
2023/12/31 08:50:15;;;;;;;6.85;3.35;;;8.40;99.90;;;;;;6178393;23;20033;-67
2023/12/31 08:53:01;;;;;;;3.47;2.22;;;8.50;99.90;;;;;;6179701;23;20044;-67
2023/12/31 08:55:51;;;;;;;5.65;3.05;;;8.50;99.90;;;;;;6178044;23;20021;-68
2023/12/31 08:58:37;;;;;;;5.85;2.80;;;8.50;99.90;;;;;;6181896;23;20009;-68
2023/12/31 09:01:23;;;;;;;4.07;3.00;;;8.60;99.90;;;;;;6181386;23;20044;-68
2023/12/31 09:04:10;;;;;;;3.33;2.10;;;8.60;99.90;;;;;;6180808;23;20123;-68
2023/12/31 09:06:56;;;;;;;4.30;2.30;;;8.60;99.90;;;;;;6180021;23;20016;-64
2023/12/31 09:09:42;;;;;;;4.45;2.47;;;8.70;99.90;;;;;;6179061;23;20151;-66
2023/12/31 09:12:28;;;;;;;7.35;2.60;;;8.70;99.90;;;;;;6180087;23;20032;-66
2023/12/31 09:15:14;;;;;;;4.63;2.55;;;8.70;99.90;;;;;;6180546;23;20088;-67
2023/12/31 09:18:00;;;;;;;4.40;2.45;;;8.80;99.90;;;;;;6182636;23;20021;-67
2023/12/31 09:20:46;;;;;;;5.25;2.58;;;8.80;99.90;;;;;;6179734;23;20009;-67
2023/12/31 09:23:32;;;;;;;4.65;2.63;;;8.90;99.90;;;;;;6181283;23;20063;-67
2023/12/31 09:26:18;;;;;;;5.93;2.67;;;8.90;99.90;;;;;;6180713;23;20025;-67
2023/12/31 09:29:04;;;;;;;10.98;3.92;;;9.00;99.90;;;;;;6180331;23;20009;-67
2023/12/31 09:31:50;;;;;;;4.97;2.33;;;9.00;99.90;;;;;;6183017;23;20045;-67
2023/12/31 09:34:36;;;;;;;4.78;2.90;;;9.00;99.90;;;;;;6179454;23;20005;-67
2023/12/31 09:37:23;;;;;;;5.72;3.03;;;9.10;99.90;;;;;;6181211;23;20013;-67
2023/12/31 09:40:10;;;;;;;5.65;3.20;;;9.10;99.90;;;;;;6179951;23;20045;-65
2023/12/31 09:42:56;;;;;;;6.63;2.78;;;9.10;99.90;;;;;;6184383;23;20028;-67
2023/12/31 09:45:42;;;;;;;4.55;2.60;;;9.20;99.90;;;;;;6181931;23;20037;-67
2023/12/31 09:48:29;;;;;;;4.80;3.38;;;9.20;99.90;;;;;;6162048;23;20055;-67
2023/12/31 09:51:17;;;;;;;4.90;2.92;;;9.20;99.90;;;;;;6182180;23;20013;-68
2023/12/31 09:54:06;;;;;;;5.70;2.95;;;9.20;99.90;;;;;;6179089;23;20017;-66
2023/12/31 09:56:52;;;;;;;5.40;2.60;;;9.20;99.90;;;;;;6183599;23;20067;-66
2023/12/31 09:59:39;;;;;;;5.97;3.08;;;9.30;99.90;;;;;;6182297;23;20009;-65
2023/12/31 10:02:26;;;;;;;5.45;2.88;;;9.30;99.90;;;;;;6179949;23;20013;-68
2023/12/31 10:05:14;;;;;;;5.80;3.30;;;9.30;99.90;;;;;;6181881;23;20012;-68
2023/12/31 10:08:03;;;;;;;5.32;2.63;;;9.30;99.90;;;;;;6179513;23;20327;-68
2023/12/31 10:10:55;;;;;;;4.82;2.53;;;9.40;99.90;;;;;;6181014;23;20457;-67
2023/12/31 10:13:41;;;;;;;5.40;2.67;;;9.40;99.90;;;;;;6181989;23;20454;-68
2023/12/31 10:16:34;;;;;;;5.15;2.90;;;9.40;99.90;;;;;;6181907;23;20490;-68
2023/12/31 10:19:20;;;;;;;5.70;3.20;;;9.40;99.90;;;;;;6178681;23;20037;-68
2023/12/31 10:22:08;;;;;;;2.85;2.20;;;9.50;99.90;;;;;;6181660;23;20088;-69
2023/12/31 10:24:55;;;;;;;5.63;2.85;;;9.50;99.90;;;;;;6181362;23;20019;-70
2023/12/31 10:27:48;;;;;;;4.00;2.40;;;9.50;99.90;;;;;;6180612;23;20079;-67
2023/12/31 10:30:37;;;;;;;5.80;2.67;;;9.50;99.90;;;;;;6181254;23;20009;-67
2023/12/31 10:33:29;;;;;;;5.07;3.08;;;9.50;99.90;;;;;;6182456;23;20132;-68
2023/12/31 10:36:22;;;;;;;4.30;2.58;;;9.60;99.90;;;;;;6180878;23;20087;-67
2023/12/31 10:39:08;;;;;;;2.60;2.00;;;9.50;99.90;;;;;;6180674;23;20009;-67
2023/12/31 10:41:59;;;;;;;7.25;3.08;;;9.60;99.90;;;;;;6181276;23;20009;-67
2023/12/31 10:44:49;;;;;;;3.65;2.38;;;9.60;99.90;;;;;;6179468;23;20509;-67
2023/12/31 10:47:36;;;;;;;3.45;2.10;;;9.60;99.90;;;;;;6181996;23;20028;-67
2023/12/31 10:50:24;;;;;;;3.90;2.50;;;9.60;99.90;;;;;;6182701;23;20020;-67
2023/12/31 10:53:11;;;;;;;3.88;2.22;;;9.70;99.90;;;;;;6181289;23;20013;-66
2023/12/31 10:55:57;;;;;;;6.00;3.20;;;9.70;99.90;;;;;;6179644;23;20013;-67
2023/12/31 10:58:45;;;;;;;3.03;1.95;;;9.70;99.90;;;;;;6178396;23;20017;-66
2023/12/31 11:01:31;;;;;;;6.82;2.60;;;9.70;99.90;;;;;;6181041;23;20047;-67
2023/12/31 11:04:18;;;;;;;3.78;2.30;;;9.80;99.90;;;;;;6181562;23;20066;-66
2023/12/31 11:07:05;;;;;;;6.70;2.33;;;9.80;99.90;;;;;;6181823;23;20027;-66
2023/12/31 11:09:52;;;;;;;4.90;2.20;;;9.90;99.90;;;;;;6180031;23;20009;-67
2023/12/31 11:12:39;;;;;;;4.45;2.28;;;9.90;99.90;;;;;;6182992;23;20339;-67
2023/12/31 11:15:26;;;;;;;5.25;2.33;;;9.90;99.90;;;;;;6178484;23;20027;-65
2023/12/31 11:18:32;;;;;;;4.18;2.53;;;10.00;99.90;;;;;;6180312;23;20020;-65
2023/12/31 11:21:51;;;;;;;4.80;2.50;;;10.00;99.90;;;;;;6179798;23;20160;-65
2023/12/31 11:24:37;;;;;;;3.50;2.38;;;10.00;99.90;;;;;;6180192;23;20017;-65
2023/12/31 11:27:26;;;;;;;5.85;2.97;;;10.00;99.90;;;;;;6182211;23;20055;-66
2023/12/31 11:30:13;;;;;;;4.80;2.60;;;10.10;99.90;;;;;;6177935;23;20083;-66
2023/12/31 11:33:00;;;;;;;5.72;2.72;;;10.10;99.90;;;;;;6181001;23;20028;-66
2023/12/31 11:35:48;;;;;;;4.60;2.78;;;10.20;99.90;;;;;;6178348;23;20005;-65
2023/12/31 11:38:58;;;;;;;4.45;2.50;;;10.20;99.90;;;;;;6182083;23;20042;-65
2023/12/31 11:41:49;;;;;;;3.90;2.72;;;10.20;99.80;;;;;;6180752;23;20009;-64
2023/12/31 11:44:43;;;;;;;4.50;2.58;;;10.20;99.80;;;;;;6178879;23;20412;-64
2023/12/31 11:47:32;;;;;;;8.65;3.05;;;10.20;99.70;;;;;;6179712;23;20049;-65
2023/12/31 11:50:22;;;;;;;4.97;2.80;;;10.20;99.70;;;;;;6181686;23;20009;-65
2023/12/31 11:53:11;;;;;;;4.22;2.33;;;10.30;99.70;;;;;;6180438;23;20009;-65
2023/12/31 11:56:01;;;;;;;5.18;2.60;;;10.30;99.60;;;;;;6180676;23;20037;-65
2023/12/31 11:58:47;;;;;;;5.15;2.30;;;10.30;99.60;;;;;;6181175;23;20453;-64
2023/12/31 12:01:34;;;;;;;4.38;2.53;;;10.30;99.60;;;;;;6180712;23;20339;-64
2023/12/31 12:04:21;;;;;;;3.72;2.45;;;10.40;99.50;;;;;;6180042;23;20005;-65
2023/12/31 12:07:07;;;;;;;8.55;3.33;;;10.40;99.50;;;;;;6180888;23;20104;-67
2023/12/31 12:09:53;;;;;;;6.15;2.53;;;10.40;99.50;;;;;;6179696;23;20015;-66
2023/12/31 12:12:38;;;;;;;5.15;2.97;;;10.40;99.40;;;;;;6182770;23;20029;-64
2023/12/31 12:15:24;;;;;;;6.47;3.00;;;10.40;99.40;;;;;;6179882;23;20071;-65
2023/12/31 12:18:36;;;;;;;4.30;2.65;;;10.40;99.30;;;;;;6179408;23;20252;-65
2023/12/31 12:21:21;;;;;;;4.32;2.80;;;10.40;99.30;;;;;;6181817;23;20087;-65
2023/12/31 12:24:09;;;;;;;3.72;2.35;;;10.40;99.30;;;;;;6179827;23;20390;-65
2023/12/31 12:26:58;;;;;;;3.55;2.28;;;10.40;99.20;;;;;;6181221;23;20044;-65
2023/12/31 12:29:43;;;;;;;4.50;2.40;;;10.40;99.20;;;;;;6180818;23;20005;-65
2023/12/31 12:32:29;;;;;;;3.58;2.42;;;10.40;99.20;;;;;;6180662;23;20020;-65
2023/12/31 12:35:15;;;;;;;5.60;2.50;;;10.40;99.10;;;;;;6181196;23;20051;-66
2023/12/31 12:38:01;;;;;;;4.70;2.50;;;10.50;99.20;;;;;;6180132;23;20013;-67
2023/12/31 12:40:51;;;;;;;4.43;2.47;;;10.40;99.10;;;;;;6179633;23;20005;-67
2023/12/31 12:43:37;;;;;;;5.95;2.55;;;10.40;99.10;;;;;;6180108;23;20079;-67
2023/12/31 12:46:30;;;;;;;3.60;2.40;;;10.50;99.10;;;;;;6181263;23;20056;-66
2023/12/31 12:49:17;;;;;;;3.75;2.50;;;10.40;99.00;;;;;;6178722;23;20009;-66
2023/12/31 12:52:03;;;;;;;4.35;2.58;;;10.40;99.10;;;;;;6180728;23;20377;-66
2023/12/31 12:54:49;;;;;;;4.72;2.75;;;10.40;99.00;;;;;;6179524;23;20016;-65
2023/12/31 12:57:35;;;;;;;6.55;3.13;;;10.40;99.10;;;;;;6179822;23;20020;-67
2023/12/31 13:00:21;;;;;;;6.90;3.72;;;10.40;99.00;;;;;;6179189;23;20033;-65
2023/12/31 13:03:07;;;;;;;6.75;3.20;;;10.50;99.00;;;;;;6179291;23;20020;-66
2023/12/31 13:05:53;;;;;;;5.93;3.05;;;10.40;99.00;;;;;;6175900;23;20097;-67
2023/12/31 13:08:39;;;;;;;5.25;3.00;;;10.40;98.90;;;;;;6180679;23;20016;-66
2023/12/31 13:11:25;;;;;;;5.63;2.72;;;10.40;98.90;;;;;;6182319;23;20345;-66
2023/12/31 13:14:11;;;;;;;6.15;3.13;;;10.40;98.90;;;;;;6179821;23;20028;-66
2023/12/31 13:16:57;;;;;;;6.95;3.47;;;10.40;98.90;;;;;;6158266;23;20060;-67
2023/12/31 13:19:42;;;;;;;4.72;2.90;;;10.40;98.90;;;;;;6181206;23;20430;-66
2023/12/31 13:22:31;;;;;;;5.65;3.88;;;10.40;98.90;;;;;;6159224;23;20040;-67
2023/12/31 13:25:17;;;;;;;4.45;2.90;;;10.40;98.90;;;;;;6180424;23;20028;-66
2023/12/31 13:28:04;;;;;;;5.95;3.60;;;10.40;98.80;;;;;;6181084;23;20028;-66
2023/12/31 13:30:50;;;;;;;5.38;3.25;;;10.30;98.90;;;;;;6179889;23;20037;-66
2023/12/31 13:33:36;;;;;;;6.72;3.58;;;10.40;98.90;;;;;;6179703;23;20434;-67
2023/12/31 13:36:21;;;;;;;4.30;3.13;;;10.40;98.90;;;;;;6179164;23;20442;-66
2023/12/31 13:39:07;;;;;;;4.57;3.10;;;10.40;98.90;;;;;;6182344;23;20438;-66
2023/12/31 13:41:53;;;;;;;4.93;2.65;;;10.40;99.00;;;;;;6166366;23;20438;-66
2023/12/31 13:44:39;;;;;;;6.55;3.03;;;10.40;98.80;;;;;;6180299;23;20037;-66
2023/12/31 13:47:25;;;;;;;4.85;3.13;;;10.40;98.80;;;;;;6174198;23;20123;-65
2023/12/31 13:50:12;;;;;;;5.22;3.50;;;10.40;98.70;;;;;;6178265;23;20040;-66
2023/12/31 13:52:58;;;;;;;7.35;3.13;;;10.40;98.70;;;;;;6178588;23;20354;-66
2023/12/31 13:55:44;;;;;;;6.13;2.80;;;10.40;98.80;;;;;;6179016;23;20013;-66
2023/12/31 13:58:30;;;;;;;4.25;2.80;;;10.30;98.80;;;;;;6182349;23;20460;-66
2023/12/31 14:01:16;;;;;;;4.97;3.47;;;10.30;98.80;;;;;;6174616;23;20264;-66
2023/12/31 14:04:03;;;;;;;3.83;2.53;;;10.40;98.70;;;;;;6176971;23;20410;-66
2023/12/31 14:06:49;;;;;;;5.63;2.95;;;10.40;98.70;;;;;;6176418;23;20346;-67
2023/12/31 14:09:36;;;;;;;5.00;3.40;;;10.40;98.80;;;;;;6180585;23;20334;-67
2023/12/31 14:12:22;;;;;;;5.10;2.75;;;10.40;98.70;;;;;;6178319;23;20104;-67
2023/12/31 14:15:08;;;;;;;4.40;2.90;;;10.40;98.70;;;;;;6180058;23;20465;-66
2023/12/31 14:17:54;;;;;;;4.68;2.55;;;10.40;98.70;;;;;;6180918;23;20405;-66
2023/12/31 14:20:40;;;;;;;4.60;2.95;;;10.40;98.70;;;;;;6182864;23;20485;-66
2023/12/31 14:23:26;;;;;;;4.25;2.80;;;10.40;98.70;;;;;;6176254;23;20489;-67
2023/12/31 14:26:12;;;;;;;4.78;2.92;;;10.40;98.60;;;;;;6181699;23;20020;-66
2023/12/31 14:28:58;;;;;;;6.13;3.33;;;10.40;98.60;;;;;;6161916;23;20105;-66
2023/12/31 14:31:44;;;;;;;6.30;3.05;;;10.40;98.50;;;;;;6180370;23;20012;-70
2023/12/31 14:34:30;;;;;;;4.45;2.72;;;10.30;98.60;;;;;;6177911;23;20013;-70
2023/12/31 14:37:16;;;;;;;4.80;3.20;;;10.30;98.60;;;;;;6177641;23;20464;-69